Antonia, Louisiana
Current Conditions -  °F | °C
As of 8:30 AM on Friday 19 Dec 2014 (Local Time) from KESF Reporting Station
Light Rain Light Rain  
Wind Chill: 51°   Ceiling: 9000
Heat Index: 51°   Visibility: 10mi
Dew Point: 49°   Wind: 7mph
Humidity: 92%   Direction: 60°ENE
Pressure: 30.13"   Gusts: NA
Location:  31.538°N, 92.3799°W
Report Text: KESF 191430Z AUTO 06006KT 10SM -RA SCT015 SCT039 OVC090 11/09 A3013 RMK AO2 P0005 T01060094
Loading
Personal Weather Stations






























Interactive Weather Map New forecast layout! Learn more

10-Day Weather Forecast

Advertisements
Track Severe Weather on mobile